Terminal Aerodrome Forecast
Issued by NWS Melbourne, FL

Home | Current Version | Previous Version | Text Only | Print | Product List | Glossary On
Versions: 1 2 3 4 5 6 7 8 9 10 11 12 13 14 15 16 17 18 19 20 21 22 23 24 25 26 27 28 29 30 31 32
000
FTUS42 KMLB 262336
TAFMCO
TAF
KMCO 262336Z 2700/2724 25005KT P6SM FEW035 SCT060 OVC070
     FM270100 34008KT P6SM SCT025 OVC060
     FM270800 36010KT P6SM BKN025 OVC040
     FM271500 02012KT P6SM VCSH BKN025 OVC050=

USA.gov is the U.S. government's official web portal to all federal, state and local government web resources and services.